createdAt,value
2023-01-10T00:00:56.793Z,81
2023-01-10T00:02:03.356Z,81
2023-01-10T00:03:10.446Z,81
2023-01-10T00:04:17.740Z,81
2023-01-10T00:06:31.800Z,81
2023-01-10T00:07:38.423Z,81
2023-01-10T00:08:45.579Z,81
2023-01-10T00:09:52.615Z,81
2023-01-10T00:10:59.739Z,81
2023-01-10T00:12:06.298Z,81
2023-01-10T00:13:13.360Z,81
2023-01-10T00:14:40.508Z,81
2023-01-10T00:24:23.696Z,81
2023-01-10T00:25:30.581Z,80
2023-01-10T00:26:37.703Z,80
2023-01-10T00:27:44.741Z,80
2023-01-10T00:28:51.410Z,80
2023-01-10T00:29:58.477Z,80
2023-01-10T00:31:05.628Z,80
2023-01-10T00:32:12.626Z,80
2023-01-10T00:33:19.206Z,80
2023-01-10T00:33:19.784Z,80
2023-01-10T00:34:26.381Z,80
2023-01-10T00:35:33.449Z,80
2023-01-10T00:36:40.530Z,80
2023-01-10T00:37:47.623Z,80
2023-01-10T00:40:01.435Z,80
2023-01-10T00:41:08.463Z,81
2023-01-10T00:42:15.530Z,81
2023-01-10T00:43:22.623Z,81
2023-01-10T00:44:29.773Z,81
2023-01-10T00:45:36.443Z,81
2023-01-10T00:46:43.431Z,81
2023-01-10T00:47:50.578Z,81
2023-01-10T00:48:57.651Z,81
2023-01-10T00:50:04.932Z,81
2023-01-10T00:51:11.396Z,81
2023-01-10T00:52:18.453Z,81
2023-01-10T00:53:25.549Z,80
2023-01-10T00:54:32.664Z,80
2023-01-10T00:55:39.821Z,80
2023-01-10T00:56:46.392Z,80
2023-01-10T00:57:53.442Z,80
2023-01-10T00:59:00.524Z,80
2023-01-10T01:00:07.663Z,80
2023-01-10T01:01:14.435Z,80
2023-01-10T01:02:21.538Z,80
2023-01-10T01:03:28.447Z,80
2023-01-10T01:04:35.565Z,80
2023-01-10T01:05:42.688Z,80
2023-01-10T01:06:49.856Z,80
2023-01-10T01:07:56.370Z,80
2023-01-10T01:10:10.590Z,81
2023-01-10T01:11:17.731Z,81
2023-01-10T01:12:24.865Z,81
2023-01-10T01:13:31.372Z,80
2023-01-10T01:14:38.510Z,81
2023-01-10T01:15:45.775Z,81
2023-01-10T01:16:52.690Z,81
2023-01-10T01:17:59.823Z,81
2023-01-10T01:19:06.371Z,81
2023-01-10T01:20:13.492Z,81
2023-01-10T01:21:20.593Z,81
2023-01-10T01:22:27.749Z,81
2023-01-10T01:23:34.314Z,81
2023-01-10T01:24:41.362Z,81
2023-01-10T01:25:48.495Z,81
2023-01-10T01:26:55.779Z,81
2023-01-10T01:28:03.223Z,81
2023-01-10T01:29:09.307Z,81
2023-01-10T01:30:18.723Z,81
2023-01-10T01:31:23.591Z,81
2023-01-10T01:32:30.657Z,81
2023-01-10T01:33:37.753Z,81
2023-01-10T01:34:44.370Z,81
2023-01-10T01:36:58.652Z,81
2023-01-10T01:38:05.641Z,81
2023-01-10T01:39:12.721Z,81
2023-01-10T01:40:19.872Z,81
2023-01-10T01:41:26.435Z,81
2023-01-10T01:42:33.584Z,81
2023-01-10T01:44:47.765Z,81
2023-01-10T01:45:54.361Z,81
2023-01-10T01:47:01.415Z,81
2023-01-10T01:48:08.543Z,81
2023-01-10T01:49:15.634Z,81
2023-01-10T01:50:22.743Z,81
2023-01-10T01:51:29.271Z,81
2023-01-10T01:52:36.485Z,81
2023-01-10T01:53:43.486Z,81
2023-01-10T01:54:50.639Z,81
2023-01-10T01:55:57.796Z,81
2023-01-10T01:57:04.329Z,81
2023-01-10T01:58:11.383Z,81
2023-01-10T01:59:18.563Z,81
2023-01-10T02:00:25.689Z,81
2023-01-10T02:01:32.344Z,81
2023-01-10T02:02:39.380Z,81
2023-01-10T02:04:53.533Z,81
2023-01-10T02:06:00.662Z,81
2023-01-10T02:08:14.471Z,81
2023-01-10T02:09:21.437Z,81
2023-01-10T02:10:28.580Z,81
2023-01-10T02:11:35.681Z,81
2023-01-10T02:13:49.529Z,81
2023-01-10T02:14:56.433Z,81
2023-01-10T02:16:03.589Z,81
2023-01-10T02:17:10.656Z,80
2023-01-10T02:18:17.296Z,80
2023-01-10T02:19:24.360Z,80
2023-01-10T02:20:31.446Z,80
2023-01-10T02:21:38.617Z,80
2023-01-10T02:22:45.752Z,80
2023-01-10T02:23:52.258Z,80
2023-01-10T02:24:59.504Z,80
2023-01-10T02:26:06.474Z,80
2023-01-10T02:27:13.632Z,80
2023-01-10T02:28:20.671Z,80
2023-01-10T02:29:27.803Z,80
2023-01-10T02:30:34.449Z,80
2023-01-10T02:31:40.946Z,80
2023-01-10T02:33:00.561Z,80
2023-01-10T02:33:55.708Z,80
2023-01-10T02:35:02.270Z,80
2023-01-10T02:36:09.408Z,80
2023-01-10T02:37:16.472Z,80
2023-01-10T02:38:23.592Z,80
2023-01-10T02:39:30.663Z,80
2023-01-10T02:40:37.307Z,80
2023-01-10T02:41:44.432Z,80
2023-01-10T02:42:51.533Z,80
2023-01-10T02:43:58.595Z,80
2023-01-10T02:45:05.770Z,80
2023-01-10T02:46:12.327Z,80
2023-01-10T02:47:19.473Z,80
2023-01-10T02:48:26.531Z,80
2023-01-10T02:49:33.603Z,80
2023-01-10T02:50:40.692Z,80
2023-01-10T02:51:47.303Z,80
2023-01-10T02:52:54.504Z,80
2023-01-10T02:54:01.511Z,80
2023-01-10T02:55:08.652Z,80
2023-01-10T02:56:15.737Z,80
2023-01-10T02:57:22.473Z,80
2023-01-10T02:58:29.447Z,80
2023-01-10T03:00:43.575Z,81
2023-01-10T03:01:50.764Z,81
2023-01-10T03:02:57.410Z,81
2023-01-10T03:04:04.424Z,81
2023-01-10T03:05:11.546Z,81
2023-01-10T03:06:18.633Z,81
2023-01-10T03:07:25.814Z,80
2023-01-10T03:08:32.339Z,80
2023-01-10T03:09:39.466Z,80
2023-01-10T03:10:46.542Z,80
2023-01-10T03:11:53.594Z,80
2023-01-10T03:13:00.778Z,80
2023-01-10T03:14:07.361Z,81
2023-01-10T03:15:14.465Z,81
2023-01-10T03:17:28.642Z,81
2023-01-10T03:18:35.776Z,81
2023-01-10T03:19:42.295Z,81
2023-01-10T03:20:49.453Z,81
2023-01-10T03:21:56.556Z,81
2023-01-10T03:23:03.691Z,81
2023-01-10T03:24:10.209Z,81
2023-01-10T03:25:17.372Z,81
2023-01-10T03:26:24.493Z,81
2023-01-10T03:27:31.515Z,81
2023-01-10T03:28:38.648Z,81
2023-01-10T03:29:45.738Z,81
2023-01-10T03:30:52.302Z,81
2023-01-10T03:31:59.495Z,81
2023-01-10T03:33:06.612Z,82
2023-01-10T03:34:13.661Z,82
2023-01-10T03:36:27.398Z,82
2023-01-10T03:37:34.548Z,82
2023-01-10T03:38:41.516Z,82
2023-01-10T03:39:48.691Z,82
2023-01-10T03:40:55.825Z,82
2023-01-10T03:42:02.407Z,82
2023-01-10T03:43:09.533Z,82
2023-01-10T03:44:16.562Z,82
2023-01-10T03:45:23.683Z,82
2023-01-10T03:46:30.876Z,82
2023-01-10T03:47:37.448Z,82
2023-01-10T03:48:44.467Z,82
2023-01-10T03:49:51.573Z,82
2023-01-10T03:50:58.671Z,82
2023-01-10T03:52:05.312Z,82
2023-01-10T03:53:12.333Z,82
2023-01-10T03:54:19.536Z,82
2023-01-10T03:55:26.603Z,82
2023-01-10T03:56:33.684Z,82
2023-01-10T03:57:40.345Z,82
2023-01-10T03:58:47.375Z,82
2023-01-10T03:59:54.485Z,82
2023-01-10T04:01:01.771Z,82
2023-01-10T04:02:08.768Z,82
2023-01-10T04:03:15.309Z,82
2023-01-10T04:04:22.474Z,82
2023-01-10T04:05:29.517Z,82
2023-01-10T04:06:36.637Z,82
2023-01-10T04:07:43.766Z,82
2023-01-10T04:08:50.324Z,82
2023-01-10T04:09:57.434Z,82
2023-01-10T04:11:04.539Z,82
2023-01-10T04:12:11.613Z,82
2023-01-10T04:13:18.737Z,82
2023-01-10T04:14:25.338Z,82
2023-01-10T04:15:32.366Z,82
2023-01-10T04:16:39.537Z,82
2023-01-10T04:17:46.708Z,82
2023-01-10T04:18:53.676Z,82
2023-01-10T04:21:07.404Z,81
2023-01-10T04:22:14.620Z,81
2023-01-10T04:23:21.624Z,81
2023-01-10T04:24:28.755Z,82
2023-01-10T04:25:35.335Z,81
2023-01-10T04:26:42.405Z,82
2023-01-10T04:27:49.632Z,82
2023-01-10T04:28:56.673Z,82
2023-01-10T04:31:10.452Z,82
2023-01-10T04:32:17.477Z,82
2023-01-10T04:33:24.549Z,82
2023-01-10T04:34:31.601Z,82
2023-01-10T04:35:38.776Z,82
2023-01-10T04:36:45.364Z,82
2023-01-10T04:37:52.597Z,82
2023-01-10T04:39:00.125Z,82
2023-01-10T04:40:06.680Z,82
2023-01-10T04:41:13.710Z,83
2023-01-10T04:42:20.325Z,83
2023-01-10T04:43:27.469Z,83
2023-01-10T04:44:34.586Z,83
2023-01-10T04:45:41.643Z,83
2023-01-10T04:46:48.277Z,83
2023-01-10T04:47:55.438Z,83
2023-01-10T04:49:02.419Z,83
2023-01-10T04:50:09.582Z,83
2023-01-10T04:51:16.730Z,84
2023-01-10T04:52:23.752Z,83
2023-01-10T04:53:30.335Z,84
2023-01-10T04:54:37.472Z,84
2023-01-10T04:55:44.562Z,84
2023-01-10T04:56:51.664Z,84
2023-01-10T04:59:05.434Z,84
2023-01-10T05:00:12.422Z,84
2023-01-10T05:01:19.626Z,84
2023-01-10T05:02:26.787Z,84
2023-01-10T05:04:40.358Z,84
2023-01-10T05:05:47.497Z,84
2023-01-10T05:06:54.616Z,84
2023-01-10T05:08:01.801Z,84
2023-01-10T05:09:08.839Z,84
2023-01-10T05:10:18.519Z,84
2023-01-10T05:11:22.475Z,84
2023-01-10T05:12:29.612Z,84
2023-01-10T05:13:36.732Z,84
2023-01-10T05:14:43.786Z,84
2023-01-10T05:15:50.394Z,84
2023-01-10T05:16:57.521Z,84
2023-01-10T05:18:04.684Z,84
2023-01-10T05:19:11.714Z,84
2023-01-10T05:20:18.829Z,83
2023-01-10T05:21:25.427Z,83
2023-01-10T05:22:32.551Z,83
2023-01-10T05:24:46.732Z,83
2023-01-10T05:25:53.289Z,83
2023-01-10T05:25:53.813Z,83
2023-01-10T05:27:00.396Z,83
2023-01-10T05:28:07.570Z,83
2023-01-10T05:29:14.658Z,83
2023-01-10T05:30:21.716Z,83
2023-01-10T05:31:28.892Z,83
2023-01-10T05:32:35.447Z,83
2023-01-10T05:33:42.544Z,83
2023-01-10T05:34:49.654Z,83
2023-01-10T05:35:56.747Z,83
2023-01-10T05:37:03.974Z,83
2023-01-10T05:38:10.457Z,83
2023-01-10T05:39:17.552Z,83
2023-01-10T05:40:25.149Z,83
2023-01-10T05:41:31.689Z,83
2023-01-10T05:42:38.909Z,83
2023-01-10T05:43:45.414Z,83
2023-01-10T05:44:52.530Z,83
2023-01-10T05:45:59.740Z,82
2023-01-10T05:47:06.756Z,82
2023-01-10T05:48:13.370Z,82
2023-01-10T05:49:20.429Z,82
2023-01-10T05:50:27.590Z,82
2023-01-10T05:51:34.657Z,82
2023-01-10T05:52:41.745Z,82
2023-01-10T05:53:50.190Z,82
2023-01-10T05:54:55.470Z,82
2023-01-10T05:56:02.489Z,82
2023-01-10T05:57:09.660Z,82
2023-01-10T05:58:16.830Z,82
2023-01-10T05:59:28.273Z,82
2023-01-10T06:00:30.449Z,81
2023-01-10T06:01:37.544Z,81
2023-01-10T06:02:44.768Z,81
2023-01-10T06:03:51.760Z,81
2023-01-10T06:04:58.351Z,81
2023-01-10T06:06:05.498Z,81
2023-01-10T06:07:12.539Z,81
2023-01-10T06:08:19.699Z,81
2023-01-10T06:09:26.306Z,81
2023-01-10T06:10:33.362Z,81
2023-01-10T06:11:40.437Z,81
2023-01-10T06:12:47.601Z,81
2023-01-10T06:13:54.802Z,81
2023-01-10T06:15:01.778Z,81
2023-01-10T06:16:08.472Z,81
2023-01-10T06:17:15.506Z,81
2023-01-10T06:18:22.627Z,81
2023-01-10T06:19:29.694Z,80
2023-01-10T06:20:36.800Z,80
2023-01-10T06:21:43.423Z,80
2023-01-10T06:22:50.541Z,80
2023-01-10T06:23:57.583Z,80
2023-01-10T06:25:04.675Z,80
2023-01-10T06:26:11.795Z,80
2023-01-10T06:28:25.542Z,80
2023-01-10T06:29:32.542Z,80
2023-01-10T06:30:39.667Z,80
2023-01-10T06:32:53.447Z,80
2023-01-10T06:34:00.504Z,80
2023-01-10T06:35:07.613Z,80
2023-01-10T06:36:14.700Z,80
2023-01-10T06:37:21.799Z,80
2023-01-10T06:38:28.383Z,79
2023-01-10T06:39:35.610Z,79
2023-01-10T06:40:42.604Z,79
2023-01-10T06:41:49.738Z,79
2023-01-10T06:42:56.846Z,79
2023-01-10T06:44:03.381Z,79
2023-01-10T06:45:10.525Z,79
2023-01-10T06:46:17.167Z,79
2023-01-10T06:47:24.740Z,79
2023-01-10T06:48:31.816Z,79
2023-01-10T06:49:38.411Z,79
2023-01-10T06:50:45.036Z,79
2023-01-10T06:51:52.091Z,79
2023-01-10T06:52:59.790Z,79
2023-01-10T06:54:06.856Z,79
2023-01-10T06:55:13.411Z,79
2023-01-10T06:56:20.513Z,79
2023-01-10T06:57:27.609Z,79
2023-01-10T06:58:34.776Z,79
2023-01-10T06:59:41.850Z,79
2023-01-10T07:00:48.460Z,79
2023-01-10T07:01:55.707Z,79
2023-01-10T07:03:02.703Z,79
2023-01-10T07:04:09.887Z,79
2023-01-10T07:05:16.892Z,79
2023-01-10T07:06:23.433Z,79
2023-01-10T07:07:30.549Z,79
2023-01-10T07:08:38.194Z,79
2023-01-10T07:09:44.806Z,79
2023-01-10T07:10:51.324Z,79
2023-01-10T07:11:58.472Z,79
2023-01-10T07:13:05.635Z,79
2023-01-10T07:14:12.603Z,79
2023-01-10T07:15:19.716Z,79
2023-01-10T07:16:26.944Z,79
2023-01-10T07:17:33.521Z,79
2023-01-10T07:18:40.512Z,79
2023-01-10T07:19:47.698Z,79
2023-01-10T07:20:54.795Z,79
2023-01-10T07:22:01.358Z,79
2023-01-10T07:23:08.497Z,79
2023-01-10T07:24:15.549Z,79
2023-01-10T07:25:22.623Z,79
2023-01-10T07:26:29.856Z,79
2023-01-10T07:27:36.435Z,79
2023-01-10T07:28:44.377Z,79
2023-01-10T07:29:50.524Z,79
2023-01-10T07:33:11.379Z,79
2023-01-10T07:34:18.514Z,79
2023-01-10T07:35:25.601Z,79
2023-01-10T07:36:32.691Z,79
2023-01-10T07:37:39.886Z,79
2023-01-10T07:38:46.926Z,79
2023-01-10T07:39:53.433Z,79
2023-01-10T07:41:00.554Z,79
2023-01-10T07:42:07.712Z,79
2023-01-10T07:43:14.845Z,79
2023-01-10T07:44:21.402Z,79
2023-01-10T07:45:28.562Z,79
2023-01-10T07:46:35.758Z,79
2023-01-10T07:47:43.107Z,79
2023-01-10T07:48:49.889Z,79
2023-01-10T07:49:56.898Z,79
2023-01-10T07:51:03.484Z,79
2023-01-10T07:52:10.620Z,79
2023-01-10T07:53:17.715Z,79
2023-01-10T07:54:24.792Z,79
2023-01-10T07:55:31.873Z,79
2023-01-10T07:56:38.546Z,79
2023-01-10T07:57:45.699Z,79
2023-01-10T07:58:52.700Z,79
2023-01-10T08:01:07.015Z,79
2023-01-10T08:02:13.570Z,79
2023-01-10T08:03:20.765Z,79
2023-01-10T08:04:27.729Z,79
2023-01-10T08:05:34.803Z,79
2023-01-10T08:06:41.372Z,79
2023-01-10T08:07:48.610Z,80
2023-01-10T08:08:55.659Z,79
2023-01-10T08:10:02.708Z,79
2023-01-10T08:11:09.856Z,79
2023-01-10T08:12:16.404Z,79
2023-01-10T08:14:30.710Z,79
2023-01-10T08:15:37.868Z,79
2023-01-10T08:16:44.876Z,79
2023-01-10T08:17:51.525Z,79
2023-01-10T08:18:58.522Z,79
2023-01-10T08:20:05.626Z,79
2023-01-10T08:21:12.766Z,79
2023-01-10T08:22:19.837Z,79
2023-01-10T08:23:26.552Z,79
2023-01-10T08:24:33.561Z,79
2023-01-10T08:25:40.619Z,79
2023-01-10T08:26:47.735Z,79
2023-01-10T08:27:54.900Z,79
2023-01-10T08:29:01.479Z,79
2023-01-10T08:30:08.589Z,78
2023-01-10T08:31:15.808Z,78
2023-01-10T08:32:22.787Z,78
2023-01-10T08:33:29.984Z,78
2023-01-10T08:35:43.557Z,78
2023-01-10T08:36:51.194Z,78
2023-01-10T08:37:57.851Z,78
2023-01-10T08:39:04.891Z,78
2023-01-10T08:40:11.471Z,78
2023-01-10T08:41:18.577Z,78
2023-01-10T08:42:25.718Z,78
2023-01-10T08:43:32.797Z,78
2023-01-10T08:44:39.888Z,78
2023-01-10T08:45:46.457Z,78
2023-01-10T08:46:53.651Z,78
2023-01-10T08:48:00.722Z,78
2023-01-10T08:49:07.763Z,78
2023-01-10T08:50:14.877Z,78
2023-01-10T08:51:21.432Z,78
2023-01-10T08:52:28.594Z,78
2023-01-10T08:53:36.224Z,78
2023-01-10T08:54:42.740Z,78
2023-01-10T08:55:49.911Z,78
2023-01-10T08:56:56.489Z,78
2023-01-10T08:58:03.656Z,78
2023-01-10T08:59:10.698Z,78
2023-01-10T09:00:18.843Z,78
2023-01-10T09:01:25.070Z,78
2023-01-10T09:02:31.606Z,78
2023-01-10T09:03:38.663Z,78
2023-01-10T09:04:45.735Z,78
2023-01-10T09:05:52.755Z,78
2023-01-10T09:06:59.395Z,78
2023-01-10T09:08:06.558Z,78
2023-01-10T09:09:13.738Z,78
2023-01-10T09:10:20.695Z,78
2023-01-10T09:11:27.841Z,78
2023-01-10T09:12:34.971Z,78
2023-01-10T09:13:41.512Z,78
2023-01-10T09:14:48.629Z,78
2023-01-10T09:15:55.801Z,78
2023-01-10T09:17:02.824Z,79
2023-01-10T09:18:09.944Z,79
2023-01-10T09:19:16.495Z,79
2023-01-10T09:20:23.587Z,79
2023-01-10T09:21:30.680Z,79
2023-01-10T09:22:37.905Z,79
2023-01-10T09:23:44.979Z,79
2023-01-10T09:24:51.591Z,79
2023-01-10T09:25:58.651Z,79
2023-01-10T09:27:05.786Z,79
2023-01-10T09:29:19.987Z,79
2023-01-10T09:30:26.562Z,79
2023-01-10T09:31:33.658Z,79
2023-01-10T09:32:40.816Z,79
2023-01-10T09:33:47.896Z,79
2023-01-10T09:34:54.968Z,79
2023-01-10T09:37:08.735Z,79
2023-01-10T09:39:22.869Z,79
2023-01-10T09:40:29.468Z,79
2023-01-10T09:41:36.518Z,79
2023-01-10T09:42:43.712Z,79
2023-01-10T09:43:50.768Z,79
2023-01-10T09:44:57.898Z,79
2023-01-10T09:46:04.475Z,79
2023-01-10T09:47:22.007Z,79
2023-01-10T09:48:18.714Z,79
2023-01-10T09:49:25.810Z,79
2023-01-10T09:50:32.869Z,79
2023-01-10T09:51:39.495Z,79
2023-01-10T09:52:46.606Z,79
2023-01-10T09:53:55.660Z,79
2023-01-10T09:55:00.787Z,79
2023-01-10T09:56:07.895Z,79
2023-01-10T09:57:14.954Z,79
2023-01-10T09:58:21.605Z,79
2023-01-10T09:59:28.699Z,79
2023-01-10T10:00:35.784Z,79
2023-01-10T10:01:42.456Z,79
2023-01-10T10:02:49.540Z,79
2023-01-10T10:03:56.629Z,79
2023-01-10T10:05:04.276Z,79
2023-01-10T10:06:12.240Z,79
2023-01-10T10:07:17.419Z,79
2023-01-10T10:08:24.555Z,79
2023-01-10T10:09:31.595Z,79
2023-01-10T10:10:38.690Z,79
2023-01-10T10:11:45.824Z,79
2023-01-10T10:12:52.883Z,79
2023-01-10T10:13:59.510Z,79
2023-01-10T10:15:06.619Z,79
2023-01-10T10:16:13.731Z,79
2023-01-10T10:18:27.455Z,79
2023-01-10T10:19:34.538Z,79
2023-01-10T10:20:41.578Z,79
2023-01-10T10:21:48.735Z,79
2023-01-10T10:22:55.829Z,79
2023-01-10T10:24:02.351Z,79
2023-01-10T10:25:09.532Z,79
2023-01-10T10:26:16.589Z,79
2023-01-10T10:27:23.754Z,79
2023-01-10T10:28:30.860Z,79
2023-01-10T10:29:37.414Z,79
2023-01-10T10:30:44.543Z,79
2023-01-10T10:31:51.670Z,79
2023-01-10T10:32:58.783Z,79
2023-01-10T10:34:05.803Z,80
2023-01-10T10:35:12.403Z,79
2023-01-10T10:36:19.544Z,79
2023-01-10T10:37:26.644Z,80
2023-01-10T10:38:33.704Z,80
2023-01-10T10:39:40.818Z,79
2023-01-10T10:40:47.979Z,80
2023-01-10T10:41:54.572Z,80
2023-01-10T10:43:01.662Z,80
2023-01-10T10:44:08.735Z,79
2023-01-10T10:45:15.859Z,79
2023-01-10T10:46:22.384Z,80
2023-01-10T10:47:29.531Z,80
2023-01-10T10:48:36.604Z,80
2023-01-10T10:49:43.730Z,79
2023-01-10T10:50:50.852Z,79
2023-01-10T10:51:57.423Z,79
2023-01-10T10:53:04.598Z,79
2023-01-10T10:54:11.627Z,79
2023-01-10T10:55:18.786Z,79
2023-01-10T10:57:32.423Z,79
2023-01-10T10:58:39.563Z,79
2023-01-10T10:59:46.686Z,79
2023-01-10T11:00:53.903Z,79
2023-01-10T11:02:01.001Z,80
2023-01-10T11:03:07.527Z,80
2023-01-10T11:04:14.542Z,80
2023-01-10T11:05:21.706Z,80
2023-01-10T11:06:28.776Z,79
2023-01-10T11:07:35.887Z,79
2023-01-10T11:08:42.501Z,80
2023-01-10T11:09:49.565Z,80
2023-01-10T11:10:56.639Z,80
2023-01-10T11:12:03.773Z,80
2023-01-10T11:13:10.872Z,80
2023-01-10T11:14:17.485Z,79
2023-01-10T11:15:24.510Z,79
2023-01-10T11:16:31.803Z,80
2023-01-10T11:17:38.825Z,80
2023-01-10T11:18:45.472Z,80
2023-01-10T11:19:52.418Z,80
2023-01-10T11:20:59.603Z,80
2023-01-10T11:22:06.711Z,80
2023-01-10T11:23:13.757Z,80
2023-01-10T11:24:20.403Z,80
2023-01-10T11:25:27.498Z,80
2023-01-10T11:26:34.740Z,80
2023-01-10T11:27:41.695Z,80
2023-01-10T11:28:48.887Z,80
2023-01-10T11:29:55.382Z,81
2023-01-10T11:31:02.459Z,81
2023-01-10T11:32:09.612Z,81
2023-01-10T11:33:17.226Z,81
2023-01-10T11:34:23.798Z,81
2023-01-10T11:35:30.453Z,81
2023-01-10T11:36:37.534Z,81
2023-01-10T11:37:44.597Z,81
2023-01-10T11:38:51.682Z,81
2023-01-10T11:39:58.793Z,81
2023-01-10T11:41:05.514Z,81
2023-01-10T11:42:12.485Z,81
2023-01-10T11:43:19.619Z,81
2023-01-10T11:44:26.797Z,81
2023-01-10T11:45:33.878Z,81
2023-01-10T11:46:40.451Z,81
2023-01-10T11:47:47.563Z,81
2023-01-10T11:49:06.697Z,81
2023-01-10T11:50:01.714Z,81
2023-01-10T11:51:08.845Z,81
2023-01-10T11:52:15.563Z,81
2023-01-10T11:53:22.512Z,81
2023-01-10T11:54:29.594Z,81
2023-01-10T11:55:36.730Z,81
2023-01-10T11:56:43.847Z,81
2023-01-10T11:57:50.400Z,81
2023-01-10T11:58:57.547Z,82
2023-01-10T12:00:04.722Z,82
2023-01-10T12:01:11.764Z,82
2023-01-10T12:02:18.903Z,82
2023-01-10T12:03:25.986Z,82
2023-01-10T12:05:39.664Z,82
2023-01-10T12:06:46.800Z,82
2023-01-10T12:07:53.820Z,82
2023-01-10T12:09:00.447Z,82
2023-01-10T12:10:07.574Z,83
2023-01-10T12:11:14.681Z,83
2023-01-10T12:12:21.701Z,83
2023-01-10T12:13:29.002Z,83
2023-01-10T12:14:35.447Z,83
2023-01-10T12:15:42.640Z,83
2023-01-10T12:16:49.683Z,83
2023-01-10T12:17:56.781Z,84
2023-01-10T12:19:03.935Z,84
2023-01-10T12:20:10.435Z,84
2023-01-10T12:21:17.545Z,84
2023-01-10T12:22:24.691Z,84
2023-01-10T12:23:31.705Z,84
2023-01-10T12:25:45.480Z,84
2023-01-10T12:26:52.539Z,84
2023-01-10T12:27:59.649Z,85
2023-01-10T12:29:06.799Z,85
2023-01-10T12:30:13.814Z,85
2023-01-10T12:31:20.596Z,85
2023-01-10T12:32:27.552Z,85
2023-01-10T12:33:34.710Z,85
2023-01-10T12:34:41.792Z,85
2023-01-10T12:35:48.918Z,85
2023-01-10T12:36:55.521Z,85
2023-01-10T12:38:02.564Z,85
2023-01-10T12:39:11.370Z,85
2023-01-10T12:40:19.189Z,85
2023-01-10T12:41:23.873Z,85
2023-01-10T12:42:30.550Z,85
2023-01-10T12:43:37.560Z,85
2023-01-10T12:44:44.718Z,86
2023-01-10T12:45:51.838Z,86
2023-01-10T12:47:06.908Z,86
2023-01-10T12:48:05.456Z,86
2023-01-10T12:49:12.568Z,86
2023-01-10T12:50:19.731Z,86
2023-01-10T12:51:26.829Z,86
2023-01-10T12:52:33.937Z,86
2023-01-10T12:53:40.471Z,86
2023-01-10T12:54:47.589Z,86
2023-01-10T12:55:54.709Z,86
2023-01-10T12:57:01.803Z,86
2023-01-10T12:58:08.944Z,86
2023-01-10T12:59:17.051Z,86
2023-01-10T13:00:22.590Z,86
2023-01-10T13:01:30.428Z,86
2023-01-10T13:02:37.005Z,86
2023-01-10T13:03:43.401Z,86
2023-01-10T13:04:50.484Z,86
2023-01-10T13:05:57.606Z,86
2023-01-10T13:07:04.810Z,86
2023-01-10T13:09:18.434Z,86
2023-01-10T13:10:25.525Z,86
2023-01-10T13:11:32.610Z,86
2023-01-10T13:12:39.744Z,86
2023-01-10T13:13:49.277Z,86
2023-01-10T13:14:54.344Z,86
2023-01-10T13:16:00.704Z,86
2023-01-10T13:17:07.644Z,86
2023-01-10T13:18:14.777Z,86
2023-01-10T13:19:21.924Z,86
2023-01-10T13:20:28.455Z,87
2023-01-10T13:21:35.529Z,87
2023-01-10T13:22:42.615Z,87
2023-01-10T13:23:49.827Z,87
2023-01-10T13:24:56.905Z,87
2023-01-10T13:26:03.416Z,87
2023-01-10T13:27:10.547Z,87
2023-01-10T13:28:17.691Z,87
2023-01-10T13:29:24.789Z,87
2023-01-10T13:30:31.798Z,87
2023-01-10T13:31:38.493Z,87
2023-01-10T13:32:45.550Z,87
2023-01-10T13:33:52.833Z,87
2023-01-10T13:34:59.786Z,87
2023-01-10T13:36:06.867Z,87
2023-01-10T13:37:13.437Z,87
2023-01-10T13:38:20.583Z,87
2023-01-10T13:39:27.738Z,87
2023-01-10T13:40:34.744Z,87
2023-01-10T13:41:41.856Z,87
2023-01-10T13:42:48.444Z,87
2023-01-10T13:43:55.572Z,87
2023-01-10T13:45:02.725Z,88
2023-01-10T13:46:09.920Z,88
2023-01-10T13:47:16.900Z,88
2023-01-10T13:48:23.431Z,88
2023-01-10T13:49:30.597Z,88
2023-01-10T13:50:37.752Z,88
2023-01-10T13:51:45.607Z,88
2023-01-10T13:53:58.510Z,88
2023-01-10T13:55:05.570Z,88
2023-01-10T13:56:12.696Z,88
2023-01-10T13:57:19.811Z,88
2023-01-10T13:58:26.859Z,88
2023-01-10T13:59:33.498Z,88
2023-01-10T14:00:40.603Z,88
2023-01-10T14:01:48.162Z,89
2023-01-10T14:02:54.820Z,89
2023-01-10T14:04:01.878Z,89
2023-01-10T14:05:08.506Z,89
2023-01-10T14:06:15.576Z,89
2023-01-10T14:07:22.753Z,89
2023-01-10T14:08:29.812Z,89
2023-01-10T14:09:36.926Z,89
2023-01-10T14:10:43.499Z,89
2023-01-10T14:12:57.811Z,89
2023-01-10T14:14:04.851Z,89
2023-01-10T14:15:11.905Z,89
2023-01-10T14:16:18.691Z,89
2023-01-10T14:17:25.799Z,89
2023-01-10T14:18:32.669Z,89
2023-01-10T14:19:39.786Z,89
2023-01-10T14:20:46.928Z,89
2023-01-10T14:21:53.490Z,89
2023-01-10T14:23:00.670Z,90
2023-01-10T14:24:07.736Z,90
2023-01-10T14:25:14.794Z,90
2023-01-10T14:26:21.910Z,90
2023-01-10T14:27:28.493Z,90
2023-01-10T14:28:35.631Z,90
2023-01-10T14:29:43.239Z,90
2023-01-10T14:30:49.900Z,90
2023-01-10T14:31:56.453Z,90
2023-01-10T14:33:03.654Z,90
2023-01-10T14:34:10.646Z,90
2023-01-10T14:35:17.763Z,90
2023-01-10T14:36:24.905Z,90
2023-01-10T14:37:31.536Z,90
2023-01-10T14:38:38.560Z,90
2023-01-10T14:39:45.644Z,90
2023-01-10T14:40:52.689Z,90
2023-01-10T14:41:59.848Z,90
2023-01-10T14:43:06.499Z,90
2023-01-10T14:44:13.518Z,90
2023-01-10T14:45:20.656Z,90
2023-01-10T14:46:27.764Z,90
2023-01-10T14:47:34.820Z,90
2023-01-10T14:48:41.445Z,90
2023-01-10T14:49:48.556Z,90
2023-01-10T14:50:55.683Z,90
2023-01-10T14:52:02.730Z,90
2023-01-10T14:53:09.853Z,90
2023-01-10T14:54:16.439Z,90
2023-01-10T14:55:23.567Z,90
2023-01-10T14:56:30.659Z,91
2023-01-10T14:57:37.781Z,90
2023-01-10T14:58:44.947Z,91
2023-01-10T14:59:51.435Z,91
2023-01-10T15:00:58.604Z,91
2023-01-10T15:02:05.657Z,91
2023-01-10T15:03:12.760Z,91
2023-01-10T15:04:19.865Z,91
2023-01-10T15:05:26.485Z,91
2023-01-10T15:06:33.511Z,91
2023-01-10T15:07:40.664Z,91
2023-01-10T15:08:47.837Z,91
2023-01-10T15:09:54.893Z,91
2023-01-10T15:11:01.419Z,91
2023-01-10T15:12:08.617Z,91
2023-01-10T15:13:15.736Z,91
2023-01-10T15:14:22.790Z,91
2023-01-10T15:16:36.632Z,91
2023-01-10T15:17:43.561Z,91
2023-01-10T15:18:50.685Z,91
2023-01-10T15:19:57.800Z,91
2023-01-10T15:22:11.449Z,91
2023-01-10T15:23:18.660Z,91
2023-01-10T15:24:25.730Z,91
2023-01-10T15:25:32.747Z,91
2023-01-10T15:26:39.891Z,91
2023-01-10T15:27:46.523Z,91
2023-01-10T15:28:53.543Z,91
2023-01-10T15:30:00.703Z,91
2023-01-10T15:31:07.922Z,91
2023-01-10T15:32:14.933Z,91
2023-01-10T15:33:21.558Z,91
2023-01-10T15:34:28.673Z,91
2023-01-10T15:35:37.003Z,91
2023-01-10T15:36:42.815Z,92
2023-01-10T15:37:49.887Z,92
2023-01-10T15:38:56.586Z,92
2023-01-10T15:40:03.562Z,92
2023-01-10T15:41:10.713Z,92
2023-01-10T15:42:17.861Z,92
2023-01-10T15:43:24.990Z,92
2023-01-10T15:44:31.463Z,92
2023-01-10T15:45:38.639Z,92
2023-01-10T15:46:45.726Z,92
2023-01-10T15:47:52.900Z,92
2023-01-10T15:49:00.014Z,92
2023-01-10T15:50:06.534Z,92
2023-01-10T15:51:13.645Z,92
2023-01-10T15:52:20.728Z,92
2023-01-10T15:53:27.863Z,92
2023-01-10T15:54:34.923Z,92
2023-01-10T15:55:41.537Z,92
2023-01-10T15:56:48.599Z,92
2023-01-10T15:57:56.278Z,92
2023-01-10T15:59:03.067Z,92
2023-01-10T16:00:09.934Z,92
2023-01-10T16:01:16.803Z,92
2023-01-10T16:02:23.815Z,92
2023-01-10T16:03:30.899Z,92
2023-01-10T16:04:37.898Z,92
2023-01-10T16:05:44.930Z,92
2023-01-10T16:06:51.572Z,92
2023-01-10T16:07:58.642Z,92
2023-01-10T16:09:05.820Z,92
2023-01-10T16:10:12.831Z,92
2023-01-10T16:11:19.949Z,92
2023-01-10T16:12:26.531Z,95
2023-01-10T16:13:33.711Z,93
2023-01-10T16:14:40.771Z,93
2023-01-10T16:15:47.845Z,96
2023-01-10T16:16:54.448Z,96
2023-01-10T16:18:01.545Z,96
2023-01-10T16:20:18.859Z,97
2023-01-10T16:21:22.856Z,97
2023-01-10T16:22:29.486Z,97
2023-01-10T16:23:36.657Z,97
2023-01-10T16:24:43.706Z,97
2023-01-10T16:25:50.769Z,97
2023-01-10T16:26:57.930Z,97
2023-01-10T16:28:04.439Z,97
2023-01-10T16:29:11.626Z,97
2023-01-10T16:30:19.015Z,97
2023-01-10T16:31:25.904Z,97
2023-01-10T16:32:32.895Z,97
2023-01-10T16:33:39.499Z,97
2023-01-10T16:34:46.599Z,97
2023-01-10T16:35:53.625Z,97
2023-01-10T16:37:00.775Z,97
2023-01-10T16:38:07.877Z,97
2023-01-10T16:39:14.513Z,97
2023-01-10T16:40:21.549Z,97
2023-01-10T16:41:28.702Z,97
2023-01-10T16:42:35.812Z,97